Time;durP1;ratioP1;P1;durP2;ratioP2;P2;SDS_P1;SDS_P2;PMS_P1;PMS_P2;Temp;Humidity;BMP_temperature;BMP_pressure;BME280_temperature;BME280_humidity;BME280_pressure;Samples;Min_cycle;Max_cycle;Signal;HPM_P1;HPM_P2
2022/12/19 00:00:23;;;;;;;51.33;31.25;;;;;;;-1.39;69.23;101735.97;4152439;28;20438;-68
2022/12/19 00:02:26;;;;;;;55.55;31.20;;;;;;;-1.35;68.56;101731.25;4146169;28;20050;-67
2022/12/19 00:04:29;;;;;;;59.08;33.25;;;;;;;-1.32;68.52;101744.25;4163608;28;20037;-68
2022/12/19 00:06:32;;;;;;;56.10;32.15;;;;;;;-1.30;69.37;101742.75;4164013;28;20042;-67
2022/12/19 00:08:35;;;;;;;56.03;31.30;;;;;;;-1.29;69.62;101739.41;4162669;28;20041;-67
2022/12/19 00:10:38;;;;;;;54.85;30.75;;;;;;;-1.27;69.40;101732.78;4159289;28;20044;-67
2022/12/19 00:12:42;;;;;;;50.85;31.73;;;;;;;-1.25;69.76;101727.81;4159525;28;20030;-68
2022/12/19 00:14:45;;;;;;;59.78;33.00;;;;;;;-1.18;69.37;101727.53;4154148;28;20038;-68
2022/12/19 00:16:47;;;;;;;54.88;30.17;;;;;;;-1.13;69.50;101717.72;4147485;28;20088;-68
2022/12/19 00:18:52;;;;;;;56.95;33.38;;;;;;;-1.12;69.24;101716.94;4147624;28;20042;-68
2022/12/19 00:20:59;;;;;;;54.53;30.58;;;;;;;-1.04;69.81;101715.00;4136107;28;20053;-68
2022/12/19 00:23:02;;;;;;;56.35;30.73;;;;;;;-1.06;69.10;101715.78;4163587;28;20124;-68
2022/12/19 00:25:05;;;;;;;50.53;30.73;;;;;;;-1.01;69.23;101712.72;4144772;28;20103;-68
2022/12/19 00:27:08;;;;;;;50.67;27.85;;;;;;;-1.11;69.64;101696.66;4161490;28;20036;-68
2022/12/19 00:29:12;;;;;;;54.28;30.92;;;;;;;-1.06;68.40;101708.13;4163549;28;20068;-69
2022/12/19 00:31:17;;;;;;;;;;;;;;;-1.11;69.51;101699.22;4177336;28;20049;-69
2022/12/19 00:33:21;;;;;;;48.47;26.67;;;;;;;-1.13;68.43;101700.72;4149255;28;20358;-69
2022/12/19 00:35:24;;;;;;;53.65;29.80;;;;;;;-1.03;69.21;101711.69;4150711;28;20038;-68
2022/12/19 00:37:27;;;;;;;47.58;26.55;;;;;;;-0.98;69.59;101705.28;4167036;28;20396;-68
2022/12/19 00:39:31;;;;;;;49.27;29.03;;;;;;;-0.96;69.32;101703.78;4158776;28;20446;-68
2022/12/19 00:41:36;;;;;;;45.00;25.98;;;;;;;-0.91;68.64;101702.47;4165712;28;20041;-68
2022/12/19 00:43:39;;;;;;;46.67;27.25;;;;;;;-0.91;69.34;101697.38;4166659;28;20046;-69
2022/12/19 00:45:43;;;;;;;49.40;26.73;;;;;;;-0.92;68.99;101698.13;4165774;28;20041;-69
2022/12/19 00:47:46;;;;;;;45.63;26.70;;;;;;;-0.90;68.29;101689.81;4149341;28;20435;-68
2022/12/19 00:49:49;;;;;;;43.28;25.10;;;;;;;-0.84;69.44;101689.44;4166747;28;20053;-68
2022/12/19 00:51:52;;;;;;;45.88;26.20;;;;;;;-0.78;68.78;101687.34;4165652;28;20037;-68
2022/12/19 00:53:56;;;;;;;46.13;27.13;;;;;;;-0.77;69.16;101690.81;4164377;28;20045;-68
2022/12/19 00:56:02;;;;;;;44.40;25.45;;;;;;;-0.78;69.29;101682.25;4160061;28;20521;-69
2022/12/19 00:58:05;;;;;;;42.72;24.00;;;;;;;-0.75;68.49;101669.72;4149182;28;20049;-68
2022/12/19 01:00:09;;;;;;;41.42;23.48;;;;;;;-0.71;68.61;101681.97;4162179;28;20038;-68
2022/12/19 01:02:14;;;;;;;42.13;25.27;;;;;;;-0.72;68.49;101685.28;4157331;28;20534;-69
2022/12/19 01:04:17;;;;;;;40.45;22.77;;;;;;;-0.67;67.80;101694.97;4166033;28;20073;-69
2022/12/19 01:06:30;;;;;;;44.63;24.98;;;;;;;-0.69;68.17;101684.66;4165176;28;20120;-69
2022/12/19 01:08:34;;;;;;;45.15;26.13;;;;;;;-0.66;68.46;101681.44;4151606;28;20038;-68
2022/12/19 01:10:37;;;;;;;38.75;23.17;;;;;;;-0.63;67.93;101680.00;4158904;28;20467;-69
2022/12/19 01:12:46;;;;;;;42.92;24.48;;;;;;;-0.59;68.07;101681.16;4159836;28;20127;-69
2022/12/19 01:14:49;;;;;;;39.13;23.02;;;;;;;-0.54;67.96;101688.44;4162157;28;20041;-68
2022/12/19 01:16:52;;;;;;;39.95;23.60;;;;;;;-0.57;67.98;101683.06;4149103;28;20041;-68
2022/12/19 01:18:58;;;;;;;40.67;24.63;;;;;;;-0.54;68.17;101682.41;4163440;28;20100;-68
2022/12/19 01:21:06;;;;;;;45.60;23.73;;;;;;;-0.59;68.01;101684.59;4154612;28;20080;-69
2022/12/19 01:23:10;;;;;;;43.20;25.00;;;;;;;-0.51;68.18;101681.75;4145861;28;20719;-68
2022/12/19 01:25:13;;;;;;;46.70;22.77;;;;;;;-0.50;68.77;101681.88;4163603;28;20144;-68
2022/12/19 01:27:16;;;;;;;40.10;21.50;;;;;;;-0.50;68.73;101684.44;4164274;28;20099;-68
2022/12/19 01:29:19;;;;;;;44.45;25.35;;;;;;;-0.46;68.13;101690.69;4133362;28;20121;-68
2022/12/19 01:31:23;;;;;;;38.88;21.70;;;;;;;-0.47;68.16;101687.22;4150829;28;20033;-68
2022/12/19 01:33:25;;;;;;;46.33;26.00;;;;;;;-0.43;68.74;101683.25;4156363;28;20052;-68
2022/12/19 01:35:30;;;;;;;40.45;23.23;;;;;;;-0.38;69.26;101672.63;4162098;28;20041;-68
2022/12/19 01:37:33;;;;;;;43.05;24.38;;;;;;;-0.39;68.08;101670.84;4165052;28;20084;-68
2022/12/19 01:39:35;;;;;;;45.65;24.95;;;;;;;-0.39;68.38;101675.94;4149748;28;20049;-68
2022/12/19 01:41:40;;;;;;;40.53;23.88;;;;;;;-0.38;68.36;101675.19;4156728;28;20059;-69
2022/12/19 01:43:58;;;;;;;41.33;23.23;;;;;;;-0.33;68.78;101669.56;4165558;28;20041;-69
2022/12/19 01:46:04;;;;;;;43.42;23.20;;;;;;;-0.36;68.48;101673.63;4164889;28;20049;-68
2022/12/19 01:48:15;;;;;;;42.92;23.77;;;;;;;-0.31;68.36;101662.88;4164813;28;20048;-69
2022/12/19 01:50:23;;;;;;;42.08;22.77;;;;;;;-0.32;68.16;101666.19;4165955;28;20038;-69
2022/12/19 01:52:28;;;;;;;44.88;24.80;;;;;;;-0.29;67.96;101646.00;4164735;28;20038;-69
2022/12/19 01:54:33;;;;;;;41.05;23.02;;;;;;;-0.32;68.86;101658.53;4164318;28;20037;-68
2022/12/19 01:56:40;;;;;;;41.70;24.73;;;;;;;-0.28;67.90;101647.78;4158101;28;20033;-69
2022/12/19 01:58:45;;;;;;;41.20;22.90;;;;;;;-0.28;68.07;101658.00;4157285;28;20029;-69
2022/12/19 02:00:48;;;;;;;39.22;22.27;;;;;;;-0.34;69.21;101645.66;4148194;28;20071;-68
2022/12/19 02:02:56;;;;;;;39.88;23.42;;;;;;;-0.42;68.70;101649.28;4157715;28;20042;-68
2022/12/19 02:05:00;;;;;;;40.20;22.90;;;;;;;-0.34;69.22;101649.88;4155654;28;20073;-68
2022/12/19 02:07:07;;;;;;;40.97;24.33;;;;;;;-0.37;69.49;101636.06;4156033;28;20131;-68
2022/12/19 02:09:19;;;;;;;43.33;24.55;;;;;;;-0.43;69.24;101648.38;4155477;28;20512;-68
2022/12/19 02:11:22;;;;;;;38.92;23.02;;;;;;;-0.37;68.40;101656.50;4135110;28;20412;-68
2022/12/19 02:13:25;;;;;;;41.70;23.75;;;;;;;-0.36;68.29;101655.75;4162348;28;20037;-68
2022/12/19 02:15:35;;;;;;;39.10;22.67;;;;;;;-0.36;68.36;101660.84;4161230;28;20041;-68
2022/12/19 02:17:50;;;;;;;42.42;22.83;;;;;;;-0.30;68.01;101650.22;4152820;28;20045;-68
2022/12/19 02:20:28;;;;;;;41.58;24.02;;;;;;;-0.26;68.72;101647.13;4148106;28;20057;-69
2022/12/19 02:22:39;;;;;;;;;;;;;;;-0.30;68.33;101644.25;4117800;28;20442;-68
2022/12/19 02:25:11;;;;;;;39.20;21.92;;;;;;;-0.23;68.90;101638.81;4163513;28;19924;-68
2022/12/19 02:27:41;;;;;;;44.10;23.25;;;;;;;-0.23;68.18;101639.72;4162250;28;20076;-69
2022/12/19 02:30:05;;;;;;;39.97;22.95;;;;;;;-0.16;67.71;101633.41;4144524;28;20038;-69
2022/12/19 02:32:19;;;;;;;42.33;22.17;;;;;;;-0.16;68.00;101623.19;4131238;28;20047;-68
2022/12/19 02:34:29;;;;;;;36.83;21.90;;;;;;;-0.14;68.43;101626.75;4147443;28;20044;-68
2022/12/19 02:36:41;;;;;;;41.05;22.88;;;;;;;-0.10;68.11;101623.66;4162984;28;20404;-69
2022/12/19 02:38:56;;;;;;;38.97;21.20;;;;;;;-0.10;67.84;101631.31;4162967;28;20042;-68
2022/12/19 02:41:05;;;;;;;39.67;23.30;;;;;;;-0.02;68.24;101626.78;4163962;28;20503;-69
2022/12/19 02:43:12;;;;;;;42.30;23.08;;;;;;;-0.10;67.44;101636.44;4163863;28;20091;-68
2022/12/19 02:45:20;;;;;;;39.85;22.20;;;;;;;-0.19;67.55;101640.81;4163872;28;20072;-68
2022/12/19 02:47:34;;;;;;;40.65;22.75;;;;;;;-0.23;67.63;101636.28;4163887;28;20096;-68
2022/12/19 02:49:38;;;;;;;41.30;22.75;;;;;;;-0.21;67.99;101629.59;4165086;28;20495;-69
2022/12/19 02:51:41;;;;;;;46.35;23.95;;;;;;;-0.12;67.73;101630.28;4146883;28;20117;-69
2022/12/19 02:53:44;;;;;;;43.10;25.20;;;;;;;-0.14;67.25;101624.19;4162025;28;20033;-69
2022/12/19 02:56:03;;;;;;;41.47;23.30;;;;;;;-0.06;67.45;101624.75;4162834;28;20088;-69
2022/12/19 02:58:35;;;;;;;40.30;22.02;;;;;;;-0.17;66.78;101634.19;4153036;28;20088;-68
2022/12/19 03:00:48;;;;;;;40.05;23.85;;;;;;;-0.16;66.09;101637.63;4163644;28;20072;-69
2022/12/19 03:02:58;;;;;;;38.65;22.25;;;;;;;-0.19;66.56;101634.06;4164916;28;20045;-68
2022/12/19 03:05:13;;;;;;;42.40;23.48;;;;;;;-0.27;66.48;101641.91;4163497;28;20053;-69
2022/12/19 03:07:26;;;;;;;36.92;21.55;;;;;;;-0.23;66.56;101638.81;4146432;28;20045;-68
2022/12/19 03:09:38;;;;;;;39.88;21.92;;;;;;;-0.21;66.62;101639.81;4157259;28;20041;-68
2022/12/19 03:11:42;;;;;;;39.53;21.73;;;;;;;-0.15;66.41;101636.84;4141465;28;20052;-68
2022/12/19 03:13:50;;;;;;;39.67;22.42;;;;;;;-0.07;67.42;101634.09;4146879;28;20124;-68
2022/12/19 03:15:53;;;;;;;40.60;20.67;;;;;;;-0.03;66.37;101635.22;4147381;28;20519;-68
2022/12/19 03:17:59;;;;;;;37.30;21.67;;;;;;;-0.04;67.35;101625.78;4153177;28;20412;-68
2022/12/19 03:20:08;;;;;;;38.78;22.40;;;;;;;0.02;67.37;101633.91;4162423;28;20407;-68
2022/12/19 03:22:11;;;;;;;40.67;21.92;;;;;;;0.06;67.23;101635.00;4147811;28;20037;-68
2022/12/19 03:24:16;;;;;;;42.55;22.67;;;;;;;0.06;67.33;101628.25;4162470;28;20034;-68
2022/12/19 03:26:20;;;;;;;;;;;;;;;-0.01;67.24;101629.44;4157975;28;20084;-68
2022/12/19 03:28:29;;;;;;;41.05;22.58;;;;;;;0.02;67.29;101633.03;4150392;28;19922;-69
2022/12/19 03:30:34;;;;;;;41.03;21.15;;;;;;;0.02;67.06;101635.59;4151110;28;20042;-68
2022/12/19 03:32:40;;;;;;;37.88;21.88;;;;;;;-0.02;67.16;101630.22;4149026;28;20069;-68
2022/12/19 03:34:47;;;;;;;37.20;21.73;;;;;;;0.00;66.86;101640.59;4162133;28;20049;-69
2022/12/19 03:36:55;;;;;;;35.83;20.52;;;;;;;0.04;67.48;101631.47;4152823;28;20047;-69
2022/12/19 03:39:01;;;;;;;40.88;23.23;;;;;;;0.10;66.96;101637.03;4153306;28;20044;-68
2022/12/19 03:41:09;;;;;;;40.17;22.55;;;;;;;0.09;66.55;101627.56;4152057;28;20484;-68
2022/12/19 03:43:16;;;;;;;41.85;22.20;;;;;;;0.12;67.29;101628.72;4160986;28;20034;-68
2022/12/19 03:45:25;;;;;;;39.17;22.80;;;;;;;0.19;66.47;101630.06;4152787;28;20046;-68
2022/12/19 03:47:33;;;;;;;38.70;21.58;;;;;;;0.16;66.66;101630.72;4178485;28;20075;-68
2022/12/19 03:49:36;;;;;;;38.28;21.52;;;;;;;0.16;67.10;101632.38;4162480;28;20341;-68
2022/12/19 03:51:48;;;;;;;36.75;21.40;;;;;;;0.16;67.33;101633.28;4147763;28;20488;-68
2022/12/19 03:53:59;;;;;;;38.15;20.58;;;;;;;0.19;67.23;101631.72;4153338;28;20041;-68
2022/12/19 03:56:09;;;;;;;38.20;22.00;;;;;;;0.17;67.22;101632.47;4159695;28;20381;-67
2022/12/19 03:58:18;;;;;;;42.63;22.55;;;;;;;0.18;67.85;101630.84;4152319;28;20041;-67
2022/12/19 04:00:23;;;;;;;41.25;23.75;;;;;;;0.25;68.03;101630.53;4147855;28;20496;-68
2022/12/19 04:02:27;;;;;;;39.70;22.05;;;;;;;0.24;67.62;101622.75;4160832;28;20041;-67
2022/12/19 04:04:33;;;;;;;41.00;22.58;;;;;;;0.27;68.17;101625.53;4161568;28;20468;-67
2022/12/19 04:06:38;;;;;;;41.35;21.95;;;;;;;0.26;67.90;101623.72;4161039;28;20041;-67
2022/12/19 04:08:43;;;;;;;43.78;24.70;;;;;;;0.21;68.39;101631.06;4157466;28;20037;-67
2022/12/19 04:10:50;;;;;;;42.15;23.75;;;;;;;0.21;68.59;101623.41;4163013;28;20509;-68
2022/12/19 04:12:58;;;;;;;38.60;21.65;;;;;;;0.22;69.27;101619.16;4171604;28;20060;-68
2022/12/19 04:15:01;;;;;;;37.90;21.80;;;;;;;0.20;69.61;101633.50;4147305;28;20046;-68
2022/12/19 04:17:15;;;;;;;43.33;23.75;;;;;;;0.23;69.33;101636.28;4146395;28;20042;-68
2022/12/19 04:19:23;;;;;;;37.58;21.23;;;;;;;0.23;69.55;101638.84;4147613;28;20075;-68
2022/12/19 04:21:31;;;;;;;34.60;22.08;;;;;;;0.21;69.37;101645.53;4147624;28;20059;-68
2022/12/19 04:23:41;;;;;;;39.70;23.08;;;;;;;0.24;69.00;101633.84;4152978;28;20037;-68
2022/12/19 04:25:49;;;;;;;41.42;24.45;;;;;;;0.28;69.45;101628.19;4152765;28;20560;-68
2022/12/19 04:27:56;;;;;;;42.35;22.90;;;;;;;0.25;69.22;101624.50;4157439;28;20164;-68
2022/12/19 04:30:02;;;;;;;36.30;21.73;;;;;;;0.23;69.32;101624.38;4158110;28;20070;-67
2022/12/19 04:32:06;;;;;;;38.35;21.30;;;;;;;0.26;69.49;101622.06;4157151;28;20030;-68
2022/12/19 04:34:09;;;;;;;39.45;23.27;;;;;;;0.36;69.37;101622.75;4150833;28;20492;-68
2022/12/19 04:36:12;;;;;;;37.83;23.20;;;;;;;0.29;69.11;101624.88;4161454;28;20041;-67
2022/12/19 04:38:15;;;;;;;45.58;23.63;;;;;;;0.31;69.80;101610.50;4154301;28;20036;-68
2022/12/19 04:40:18;;;;;;;39.65;21.98;;;;;;;0.26;69.49;101601.59;4163073;28;20041;-67
2022/12/19 04:42:22;;;;;;;39.88;22.30;;;;;;;0.32;69.55;101596.97;4159032;28;20044;-67
2022/12/19 04:44:25;;;;;;;37.78;22.48;;;;;;;0.28;69.89;101600.06;4159887;28;20099;-67
2022/12/19 04:46:28;;;;;;;43.72;25.25;;;;;;;0.30;69.16;101601.06;4159609;28;20045;-67
2022/12/19 04:48:31;;;;;;;39.63;21.33;;;;;;;0.29;69.75;101593.25;4161739;28;20046;-68
2022/12/19 04:50:34;;;;;;;39.40;21.30;;;;;;;0.33;70.03;101601.28;4157038;28;20506;-67
2022/12/19 04:52:37;;;;;;;40.58;22.70;;;;;;;0.34;69.62;101600.50;4156840;28;20064;-67
2022/12/19 04:54:40;;;;;;;40.83;23.70;;;;;;;0.40;69.23;101592.41;4156104;28;20042;-68
2022/12/19 04:56:43;;;;;;;38.08;21.40;;;;;;;0.40;69.12;101587.28;4149629;28;20108;-67
2022/12/19 04:58:47;;;;;;;41.22;23.83;;;;;;;0.43;69.07;101581.50;4155619;28;20096;-67
2022/12/19 05:00:50;;;;;;;43.75;24.15;;;;;;;0.41;69.50;101583.97;4160634;28;20034;-68
2022/12/19 05:02:53;;;;;;;42.78;22.70;;;;;;;0.43;69.47;101579.84;4163093;28;20491;-67
2022/12/19 05:04:56;;;;;;;40.78;23.17;;;;;;;0.41;69.50;101575.38;4162186;28;20499;-67
2022/12/19 05:06:59;;;;;;;39.53;21.25;;;;;;;0.44;68.62;101584.19;4162201;28;20041;-68
2022/12/19 05:09:01;;;;;;;38.28;22.60;;;;;;;0.37;69.60;101581.06;4153535;28;20046;-68
2022/12/19 05:11:05;;;;;;;42.80;23.38;;;;;;;0.38;69.66;101582.81;4146223;28;20054;-67
2022/12/19 05:13:08;;;;;;;42.15;23.58;;;;;;;0.49;68.97;101576.84;4148179;28;20045;-67
2022/12/19 05:15:12;;;;;;;40.50;23.48;;;;;;;0.39;68.83;101577.81;4159382;28;20480;-68
2022/12/19 05:17:15;;;;;;;39.15;22.45;;;;;;;0.38;69.11;101583.75;4163432;28;20125;-67
2022/12/19 05:19:18;;;;;;;41.13;22.13;;;;;;;0.35;69.53;101586.03;4161130;28;20044;-67
2022/12/19 05:21:21;;;;;;;38.70;21.85;;;;;;;0.41;69.38;101580.50;4150264;28;20038;-67
2022/12/19 05:23:25;;;;;;;39.00;23.15;;;;;;;0.42;69.79;101575.47;4154335;28;20038;-67
2022/12/19 05:25:27;;;;;;;40.80;21.08;;;;;;;0.42;69.25;101557.56;4165288;28;20064;-67
2022/12/19 05:27:30;;;;;;;43.08;23.35;;;;;;;0.44;69.13;101560.25;4160260;28;20523;-67
2022/12/19 05:29:33;;;;;;;41.40;23.17;;;;;;;0.44;68.91;101562.81;4164057;28;20088;-67
2022/12/19 05:31:37;;;;;;;39.17;22.63;;;;;;;0.47;68.87;101560.50;4166032;28;20128;-67
2022/12/19 05:33:41;;;;;;;42.67;24.90;;;;;;;0.48;69.40;101564.81;4164730;28;20053;-68
2022/12/19 05:35:44;;;;;;;41.22;22.65;;;;;;;0.48;69.69;101564.81;4166310;28;20549;-67
2022/12/19 05:37:47;;;;;;;42.03;23.75;;;;;;;0.52;69.10;101570.25;4159235;28;20052;-67
2022/12/19 05:39:50;;;;;;;40.60;22.90;;;;;;;0.60;68.40;101568.28;4158024;28;20051;-67
2022/12/19 05:41:53;;;;;;;42.75;22.65;;;;;;;0.59;68.65;101563.94;4164842;28;20087;-67
2022/12/19 05:43:56;;;;;;;44.58;23.20;;;;;;;0.43;68.89;101561.91;4165821;28;20080;-67
2022/12/19 05:45:59;;;;;;;41.38;23.10;;;;;;;0.57;68.85;101565.50;4158864;28;20037;-67
2022/12/19 05:48:03;;;;;;;42.60;24.23;;;;;;;0.64;68.56;101562.59;4150183;28;20467;-67
2022/12/19 05:50:07;;;;;;;41.50;22.42;;;;;;;0.48;69.39;101562.25;4153407;28;20099;-67
2022/12/19 05:52:09;;;;;;;40.30;23.55;;;;;;;0.46;69.60;101582.59;4164553;28;20515;-67
2022/12/19 05:54:12;;;;;;;41.90;24.45;;;;;;;0.52;69.70;101574.50;4180929;28;20036;-68
2022/12/19 05:56:17;;;;;;;41.95;21.88;;;;;;;0.56;69.74;101567.94;4161534;28;20038;-67
2022/12/19 05:58:20;;;;;;;45.50;24.60;;;;;;;0.60;69.19;101575.94;4155589;28;20527;-67
2022/12/19 06:00:23;;;;;;;42.22;23.85;;;;;;;0.63;69.49;101576.16;4147491;28;20046;-67
2022/12/19 06:02:26;;;;;;;39.95;23.52;;;;;;;0.61;69.19;101576.84;4160506;28;20037;-67
2022/12/19 06:04:30;;;;;;;45.30;23.73;;;;;;;0.58;69.30;101577.50;4160305;28;20040;-67
2022/12/19 06:06:33;;;;;;;41.28;22.70;;;;;;;0.64;69.62;101583.06;4151671;28;20049;-67
2022/12/19 06:08:36;;;;;;;38.60;21.25;;;;;;;0.63;69.45;101572.72;4155646;28;20092;-67
2022/12/19 06:10:39;;;;;;;40.55;23.77;;;;;;;0.60;69.59;101578.50;4163534;28;20128;-67
2022/12/19 06:12:42;;;;;;;42.72;23.88;;;;;;;0.65;69.81;101566.03;4163691;28;20124;-67
2022/12/19 06:14:45;;;;;;;40.05;23.73;;;;;;;0.67;69.83;101567.03;4156819;28;20041;-67
2022/12/19 06:16:48;;;;;;;41.97;23.80;;;;;;;0.71;69.54;101568.16;4155143;28;20046;-67
2022/12/19 06:18:51;;;;;;;46.03;24.33;;;;;;;0.66;69.89;101570.38;4156531;28;20415;-67
2022/12/19 06:21:00;;;;;;;46.95;25.73;;;;;;;0.71;69.82;101565.59;4164321;28;20045;-67
2022/12/19 06:23:03;;;;;;;44.35;25.67;;;;;;;0.69;69.49;101565.50;4163015;28;20083;-67
2022/12/19 06:25:06;;;;;;;42.35;22.83;;;;;;;0.69;69.93;101566.38;4152513;28;20049;-67
2022/12/19 06:27:09;;;;;;;38.00;22.95;;;;;;;0.73;69.59;101567.50;4164517;28;20046;-67
2022/12/19 06:29:12;;;;;;;39.65;21.50;;;;;;;0.76;69.64;101571.91;4164835;28;20037;-67
2022/12/19 06:31:16;;;;;;;39.45;22.23;;;;;;;0.80;69.51;101569.69;4164986;28;20079;-67
2022/12/19 06:33:19;;;;;;;39.53;22.55;;;;;;;0.78;69.91;101576.38;4163421;28;20041;-67
2022/12/19 06:35:22;;;;;;;43.03;24.20;;;;;;;0.78;69.72;101568.69;4160170;28;20064;-67
2022/12/19 06:37:26;;;;;;;41.95;24.40;;;;;;;0.79;69.54;101569.56;4152970;28;20037;-67
2022/12/19 06:39:29;;;;;;;45.35;24.75;;;;;;;0.82;70.00;101562.16;4163420;28;20033;-67
2022/12/19 06:43:52;;;;;;;41.10;23.08;;;;;;;0.88;69.61;101562.56;4152975;28;20053;-68
2022/12/19 06:45:57;;;;;;;41.10;23.77;;;;;;;0.87;69.76;101565.91;4155628;28;20455;-67
2022/12/19 06:47:59;;;;;;;39.35;23.05;;;;;;;0.84;69.86;101565.69;4163340;28;20045;-67
2022/12/19 06:50:02;;;;;;;41.00;23.33;;;;;;;0.84;69.68;101561.44;4156791;28;20045;-67
2022/12/19 06:52:05;;;;;;;39.38;23.05;;;;;;;0.87;70.13;101568.47;4164928;28;20052;-67
2022/12/19 06:54:13;;;;;;;40.70;22.75;;;;;;;0.86;69.91;101562.47;4164717;28;20052;-67
2022/12/19 06:56:19;;;;;;;38.78;22.30;;;;;;;0.82;70.05;101563.03;4165426;28;20041;-67
2022/12/19 06:58:22;;;;;;;39.13;21.73;;;;;;;0.85;70.19;101550.44;4162781;28;20111;-67
2022/12/19 07:00:26;;;;;;;40.83;22.58;;;;;;;0.84;70.54;101546.09;4161662;28;20052;-67
2022/12/19 07:02:31;;;;;;;39.63;22.80;;;;;;;0.90;70.71;101550.75;4163648;28;20060;-67
2022/12/19 07:04:40;;;;;;;39.78;22.10;;;;;;;0.87;70.10;101553.09;4164747;28;20132;-67
2022/12/19 07:06:43;;;;;;;42.50;24.10;;;;;;;0.89;70.00;101558.34;4162667;28;20385;-68
2022/12/19 07:08:51;;;;;;;35.08;21.30;;;;;;;0.97;70.12;101547.84;4156772;28;20052;-68
2022/12/19 07:10:55;;;;;;;40.05;22.88;;;;;;;0.98;70.19;101552.19;4164883;28;20045;-68
2022/12/19 07:12:58;;;;;;;42.42;25.15;;;;;;;0.95;69.79;101559.66;4164716;28;20041;-68
2022/12/19 07:15:01;;;;;;;44.03;24.15;;;;;;;0.93;70.10;101557.78;4162045;28;20183;-68
2022/12/19 07:17:05;;;;;;;40.88;22.63;;;;;;;0.95;70.04;101552.00;4164477;28;20051;-67
2022/12/19 07:19:09;;;;;;;37.40;22.00;;;;;;;0.95;70.26;101553.63;4164699;28;20099;-68
2022/12/19 07:21:12;;;;;;;44.72;24.13;;;;;;;0.94;70.49;101557.00;4163450;28;20041;-68
2022/12/19 07:23:18;;;;;;;43.80;23.67;;;;;;;0.97;70.58;101555.53;4164554;28;20450;-68
2022/12/19 07:25:21;;;;;;;39.72;23.17;;;;;;;1.01;70.66;101560.09;4164478;28;20046;-67
2022/12/19 07:27:27;;;;;;;42.40;23.33;;;;;;;1.04;71.12;101560.31;4164580;28;20487;-67
2022/12/19 07:29:37;;;;;;;35.67;21.40;;;;;;;1.06;70.66;101564.66;4163290;28;20029;-66
2022/12/19 07:31:40;;;;;;;37.53;20.48;;;;;;;1.06;70.82;101564.66;4164262;28;20068;-66
2022/12/19 07:33:43;;;;;;;39.55;22.73;;;;;;;1.10;70.69;101553.84;4163145;28;20555;-67
2022/12/19 07:35:45;;;;;;;40.80;21.15;;;;;;;1.13;70.41;101548.94;4164224;28;20450;-67
2022/12/19 07:37:48;;;;;;;38.83;23.15;;;;;;;1.19;70.42;101555.34;4163018;28;20037;-68
2022/12/19 07:39:52;;;;;;;40.38;22.55;;;;;;;1.21;70.22;101558.94;4156440;28;20529;-67
2022/12/19 07:41:54;;;;;;;33.35;21.02;;;;;;;1.14;70.56;101560.94;4164132;28;20112;-67
2022/12/19 07:44:11;;;;;;;40.47;22.23;;;;;;;1.19;70.27;101563.03;4162944;28;20041;-67
2022/12/19 07:46:14;;;;;;;41.38;21.83;;;;;;;1.19;70.28;101563.03;4146651;28;20046;-67
2022/12/19 07:48:17;;;;;;;40.55;22.08;;;;;;;1.19;70.14;101563.03;4164255;28;20041;-67
2022/12/19 07:50:20;;;;;;;38.38;20.92;;;;;;;1.23;69.96;101566.72;4164253;28;20038;-67
2022/12/19 07:52:23;;;;;;;37.28;20.60;;;;;;;1.25;70.39;101570.28;4164063;28;20048;-67
2022/12/19 07:54:26;;;;;;;39.38;22.90;;;;;;;1.23;70.55;101561.59;4145374;28;20038;-67
2022/12/19 07:56:29;;;;;;;36.80;22.38;;;;;;;1.29;70.53;101568.81;4164090;28;20071;-67
2022/12/19 07:58:32;;;;;;;38.72;23.35;;;;;;;1.33;70.51;101569.16;4163153;28;20128;-66
2022/12/19 08:00:37;;;;;;;40.78;24.13;;;;;;;1.35;70.24;101567.56;4162727;28;20095;-66
2022/12/19 08:02:40;;;;;;;39.20;22.90;;;;;;;1.41;70.11;101566.22;4162809;28;20099;-67
2022/12/19 08:04:43;;;;;;;36.25;21.83;;;;;;;1.38;70.24;101567.78;4163729;28;20527;-67
2022/12/19 08:06:46;;;;;;;36.25;20.20;;;;;;;1.38;70.58;101552.41;4164072;28;20515;-67
2022/12/19 08:08:49;;;;;;;39.58;22.88;;;;;;;1.45;70.13;101560.53;4157008;28;20044;-67
2022/12/19 08:10:51;;;;;;;37.53;22.60;;;;;;;1.41;70.30;101563.66;4163913;28;20553;-67
2022/12/19 08:12:54;;;;;;;32.97;19.55;;;;;;;1.45;70.30;101555.41;4162664;28;20044;-66
2022/12/19 08:14:57;;;;;;;36.50;22.17;;;;;;;1.44;70.29;101551.06;4162391;28;20052;-66
2022/12/19 08:17:01;;;;;;;38.33;23.08;;;;;;;1.53;69.94;101559.38;4164049;28;20040;-68
2022/12/19 08:19:24;;;;;;;36.63;21.98;;;;;;;1.52;69.63;101560.13;4160711;28;20049;-67
2022/12/19 08:21:30;;;;;;;37.72;23.67;;;;;;;1.57;70.23;101548.53;4161107;28;20042;-68
2022/12/19 08:23:33;;;;;;;36.17;22.40;;;;;;;1.53;70.06;101551.69;4162237;28;20042;-67
2022/12/19 08:25:38;;;;;;;38.83;23.20;;;;;;;1.53;69.79;101554.25;4164264;28;20459;-67
2022/12/19 08:27:41;;;;;;;35.25;21.20;;;;;;;1.51;70.31;101553.25;4148707;28;20495;-67
2022/12/19 08:29:44;;;;;;;37.70;21.95;;;;;;;1.58;70.33;101563.16;4161898;28;20439;-67
2022/12/19 08:31:47;;;;;;;35.95;20.52;;;;;;;1.58;70.44;101563.16;4146126;28;20504;-67
2022/12/19 08:33:52;;;;;;;37.25;22.63;;;;;;;1.64;69.98;101560.13;4147032;28;20042;-67
2022/12/19 08:35:54;;;;;;;;;;;;;;;1.59;69.69;101554.66;4148020;28;20073;-67
2022/12/19 08:37:57;;;;;;;39.08;22.08;;;;;;;1.52;70.11;101555.00;4146377;28;19921;-67
2022/12/19 08:40:00;;;;;;;37.92;21.52;;;;;;;1.54;70.52;101548.34;4151743;28;20348;-67
2022/12/19 08:42:04;;;;;;;42.22;23.75;;;;;;;1.62;70.34;101552.31;4162487;28;20049;-67
2022/12/19 08:44:10;;;;;;;38.45;20.48;;;;;;;1.59;70.03;101544.41;4159719;28;20034;-67
2022/12/19 08:46:13;;;;;;;39.78;23.60;;;;;;;1.75;70.11;101543.75;4145506;28;20068;-67
2022/12/19 08:48:16;;;;;;;37.83;22.17;;;;;;;1.74;69.35;101542.00;4162625;28;20045;-67
2022/12/19 08:50:20;;;;;;;40.47;24.17;;;;;;;1.69;69.99;101535.66;4163895;28;20095;-67
2022/12/19 08:52:23;;;;;;;35.55;22.30;;;;;;;1.73;69.41;101535.97;4165812;28;20041;-67
2022/12/19 08:54:26;;;;;;;38.05;21.98;;;;;;;1.73;69.64;101535.97;4163682;28;20065;-67
2022/12/19 08:56:29;;;;;;;41.30;23.77;;;;;;;1.70;69.41;101543.47;4164248;28;20045;-67
2022/12/19 08:58:32;;;;;;;38.60;22.25;;;;;;;1.70;69.83;101540.91;4165296;28;20049;-67
2022/12/19 09:00:36;;;;;;;40.17;23.40;;;;;;;1.76;69.77;101535.28;4166725;28;20491;-67
2022/12/19 09:02:39;;;;;;;41.93;22.67;;;;;;;1.89;68.99;101532.75;4157196;28;20091;-67
2022/12/19 09:04:42;;;;;;;39.00;23.98;;;;;;;1.84;69.12;101531.59;4155927;28;20299;-67
2022/12/19 09:07:06;;;;;;;38.70;22.88;;;;;;;1.81;69.25;101528.81;4150010;28;20048;-66
2022/12/19 09:09:09;;;;;;;42.47;24.00;;;;;;;1.81;69.40;101518.56;4151880;28;20416;-66
2022/12/19 09:11:14;;;;;;;37.97;21.17;;;;;;;1.81;69.30;101517.66;4166446;28;20037;-67
2022/12/19 09:13:17;;;;;;;;;;;;;;;1.75;69.91;101510.44;4159156;28;20087;-67
2022/12/19 09:15:20;;;;;;;40.30;23.52;;;;;;;1.80;69.66;101503.06;4166444;28;19921;-67
2022/12/19 09:17:22;;;;;;;43.20;23.70;;;;;;;1.86;69.98;101511.16;4163895;28;20128;-67
2022/12/19 09:19:26;;;;;;;40.95;23.15;;;;;;;1.76;70.30;101511.34;4166412;28;20044;-67
2022/12/19 09:21:29;;;;;;;40.97;24.38;;;;;;;1.82;70.27;101515.19;4165020;28;20049;-67
2022/12/19 09:23:34;;;;;;;41.25;23.98;;;;;;;1.79;70.20;101520.13;4152803;28;20084;-67
2022/12/19 09:25:37;;;;;;;37.50;21.80;;;;;;;1.79;70.08;101526.94;4165143;28;20901;-67
2022/12/19 09:27:40;;;;;;;40.45;23.92;;;;;;;1.84;70.39;101538.38;4148547;28;20503;-67
2022/12/19 09:30:04;;;;;;;43.53;23.98;;;;;;;1.90;70.38;101525.97;4150032;28;20038;-67
2022/12/19 09:32:06;;;;;;;39.05;23.50;;;;;;;1.90;70.23;101524.28;4149671;28;20149;-67
2022/12/19 09:34:09;;;;;;;35.83;21.80;;;;;;;1.93;69.74;101523.63;4149356;28;20455;-67
2022/12/19 09:36:14;;;;;;;34.83;21.38;;;;;;;1.95;70.47;101516.91;4150073;28;20048;-67
2022/12/19 09:38:17;;;;;;;36.65;22.42;;;;;;;1.97;70.20;101523.03;4154335;28;20034;-66